This is the latest recevied weather packets stored in our database for station/object CE2LOH-10. If no packets are shown the sender has not sent any weather packets the latest 10 day(s).
| Time | Temp. | Humidity | Pressure | Rain* | Wind** | Luminosity | Snow |
|---|---|---|---|---|---|---|---|
| 1778260174 | 18.89° C | 44% | 996.1 hPa | - | - | - | - |
| 1778259274 | 18.33° C | 45% | 996.4 hPa | - | - | - | - |
| 1778258374 | 17.78° C | 48% | 996.6 hPa | - | - | - | - |
| 1778257474 | 17.78° C | 49% | 996.9 hPa | - | - | - | - |
| 1778256574 | 17.22° C | 50% | 997.1 hPa | - | - | - | - |
| 1778255674 | 16.67° C | 50% | 997.3 hPa | - | - | - | - |
| 1778254774 | 16.11° C | 51% | 997.5 hPa | - | - | - | - |
| 1778253874 | 15.56° C | 51% | 997.7 hPa | - | - | - | - |
| 1778252973 | 15.56° C | 52% | 998 hPa | - | - | - | - |
| 1778252073 | 15° C | 53% | 998.2 hPa | - | - | - | - |
| 1778251173 | 15° C | 54% | 998.3 hPa | - | - | - | - |
| 1778249373 | 13.89° C | 53% | 998.4 hPa | - | - | - | - |
| 1778248472 | 13.33° C | 54% | 998.4 hPa | - | - | - | - |
| 1778247572 | 13.33° C | 53% | 998.1 hPa | - | - | - | - |
| 1778246672 | 12.78° C | 52% | 998.2 hPa | - | - | - | - |
| 1778245772 | 12.78° C | 53% | 998.5 hPa | - | - | - | - |
| 1778244872 | 12.78° C | 51% | 998.2 hPa | - | - | - | - |
| 1778243971 | 11.11° C | 53% | 998.5 hPa | - | - | - | - |
| 1778243071 | 11.11° C | 53% | 998.6 hPa | - | - | - | - |
| 1778242171 | 11.11° C | 53% | 998.4 hPa | - | - | - | - |
| 1778241271 | 11.67° C | 53% | 998.6 hPa | - | - | - | - |
| 1778240371 | 11.67° C | 53% | 998.5 hPa | - | - | - | - |
| 1778239471 | 11.67° C | 53% | 998.5 hPa | - | - | - | - |
| 1778238571 | 11.67° C | 53% | 998.5 hPa | - | - | - | - |
| 1778237670 | 11.67° C | 52% | 998.4 hPa | - | - | - | - |
* Rain since midnight (hover to see other rain measurements)
** Current wind speed in m/s (hover to see current wind gust speed)